createdAt,value
2019-01-24T00:00:17.855Z,91.00
2019-01-24T00:01:17.803Z,91.36
2019-01-24T00:02:17.788Z,91.46
2019-01-24T00:03:17.773Z,90.89
2019-01-24T00:04:17.769Z,91.04
2019-01-24T00:05:17.764Z,91.11
2019-01-24T00:06:17.804Z,90.69
2019-01-24T00:07:17.735Z,90.62
2019-01-24T00:08:17.723Z,89.98
2019-01-24T00:09:17.721Z,89.03
2019-01-24T00:10:17.699Z,89.03
2019-01-24T00:11:17.691Z,89.03
2019-01-24T00:12:17.743Z,90.20
2019-01-24T00:13:17.688Z,91.04
2019-01-24T00:14:17.663Z,91.04
2019-01-24T00:15:17.680Z,91.31
2019-01-24T00:16:17.669Z,91.14
2019-01-24T00:17:17.634Z,91.04
2019-01-24T00:18:18.023Z,90.94
2019-01-24T00:19:17.614Z,90.72
2019-01-24T00:20:17.610Z,91.36
2019-01-24T00:21:17.592Z,91.00
2019-01-24T00:22:17.582Z,91.11
2019-01-24T00:23:17.583Z,91.42
2019-01-24T00:24:17.603Z,91.21
2019-01-24T00:25:17.553Z,91.00
2019-01-24T00:26:17.537Z,91.46
2019-01-24T00:27:17.530Z,91.04
2019-01-24T00:28:17.548Z,91.00
2019-01-24T00:29:17.508Z,90.94
2019-01-24T00:30:17.533Z,91.67
2019-01-24T00:31:17.490Z,91.67
2019-01-24T00:32:17.481Z,91.25
2019-01-24T00:33:17.569Z,91.04
2019-01-24T00:34:23.191Z,91.36
2019-01-24T00:35:18.512Z,91.46
2019-01-24T00:36:17.448Z,91.46
2019-01-24T00:37:17.431Z,91.46
2019-01-24T00:38:17.412Z,91.57
2019-01-24T00:39:17.755Z,91.21
2019-01-24T00:40:17.394Z,91.14
2019-01-24T00:41:17.386Z,91.53
2019-01-24T00:42:17.411Z,91.42
2019-01-24T00:43:17.365Z,91.78
2019-01-24T00:44:17.353Z,91.74
2019-01-24T00:45:17.356Z,92.05
2019-01-24T00:46:17.340Z,91.63
2019-01-24T00:47:17.323Z,92.05
2019-01-24T00:48:17.358Z,92.16
2019-01-24T00:49:17.305Z,92.05
2019-01-24T00:50:17.291Z,91.53
2019-01-24T00:51:17.282Z,91.21
2019-01-24T00:52:17.294Z,91.42
2019-01-24T00:53:17.282Z,91.21
2019-01-24T00:54:17.282Z,91.63
2019-01-24T00:55:17.251Z,91.53
2019-01-24T00:56:17.232Z,92.05
2019-01-24T00:57:17.220Z,91.11
2019-01-24T00:58:17.226Z,91.11
2019-01-24T00:59:17.199Z,91.00
2019-01-24T01:00:17.403Z,92.05
2019-01-24T01:01:17.183Z,91.53
2019-01-24T01:02:17.170Z,91.57
2019-01-24T01:03:17.175Z,91.63
2019-01-24T01:04:17.149Z,91.00
2019-01-24T01:05:17.145Z,91.25
2019-01-24T01:06:17.169Z,91.00
2019-01-24T01:07:17.118Z,91.04
2019-01-24T01:08:17.114Z,90.89
2019-01-24T01:09:17.116Z,90.89
2019-01-24T01:10:17.083Z,90.94
2019-01-24T01:11:17.080Z,91.14
2019-01-24T01:12:17.169Z,91.04
2019-01-24T01:13:17.054Z,91.63
2019-01-24T01:14:17.048Z,91.31
2019-01-24T01:15:17.051Z,91.00
2019-01-24T01:16:17.022Z,91.21
2019-01-24T01:17:17.019Z,90.72
2019-01-24T01:18:17.051Z,91.14
2019-01-24T01:19:16.993Z,91.53
2019-01-24T01:20:16.981Z,90.89
2019-01-24T01:21:16.992Z,90.62
2019-01-24T01:22:16.961Z,90.58
2019-01-24T01:23:16.969Z,90.30
2019-01-24T01:24:16.970Z,90.62
2019-01-24T01:25:16.929Z,90.72
2019-01-24T01:26:16.919Z,90.69
2019-01-24T01:27:16.916Z,91.25
2019-01-24T01:28:16.904Z,91.14
2019-01-24T01:29:16.905Z,91.25
2019-01-24T01:30:16.911Z,90.94
2019-01-24T01:31:16.871Z,90.72
2019-01-24T01:32:16.862Z,90.62
2019-01-24T01:33:16.849Z,91.04
2019-01-24T01:34:16.859Z,90.83
2019-01-24T01:35:16.826Z,90.94
2019-01-24T01:36:16.846Z,90.72
2019-01-24T01:37:16.845Z,90.83
2019-01-24T01:38:17.526Z,90.30
2019-01-24T01:39:16.790Z,90.55
2019-01-24T01:40:16.793Z,91.04
2019-01-24T01:41:16.773Z,90.94
2019-01-24T01:42:16.791Z,91.04
2019-01-24T01:43:16.748Z,91.14
2019-01-24T01:44:16.743Z,90.41
2019-01-24T01:45:16.738Z,90.94
2019-01-24T01:46:16.735Z,91.67
2019-01-24T01:47:16.710Z,91.67
2019-01-24T01:48:16.734Z,91.46
2019-01-24T01:49:16.697Z,91.04
2019-01-24T01:50:16.683Z,91.57
2019-01-24T01:51:16.664Z,91.36
2019-01-24T01:52:16.655Z,91.72
2019-01-24T01:53:16.645Z,91.36
2019-01-24T01:54:16.725Z,91.04
2019-01-24T01:55:16.622Z,90.72
2019-01-24T01:56:16.675Z,91.25
2019-01-24T01:57:16.606Z,91.19
2019-01-24T01:58:16.597Z,90.87
2019-01-24T01:59:16.602Z,91.08
2019-01-24T02:00:16.596Z,91.08
2019-01-24T02:01:16.563Z,91.36
2019-01-24T02:02:16.572Z,91.40
2019-01-24T02:03:16.546Z,91.50
2019-01-24T02:04:16.551Z,91.40
2019-01-24T02:05:16.525Z,91.19
2019-01-24T02:06:16.531Z,90.87
2019-01-24T02:07:16.502Z,90.03
2019-01-24T02:08:16.505Z,90.55
2019-01-24T02:09:16.491Z,90.81
2019-01-24T02:10:16.497Z,91.19
2019-01-24T02:11:16.463Z,91.65
2019-01-24T02:12:16.482Z,91.61
2019-01-24T02:13:16.443Z,91.72
2019-01-24T02:14:16.431Z,91.40
2019-01-24T02:15:16.428Z,92.14
2019-01-24T02:16:16.436Z,91.08
2019-01-24T02:17:16.404Z,92.03
2019-01-24T02:18:16.435Z,91.61
2019-01-24T02:19:16.377Z,91.72
2019-01-24T02:20:16.369Z,90.98
2019-01-24T02:21:16.362Z,91.08
2019-01-24T02:22:16.373Z,91.19
2019-01-24T02:23:16.349Z,91.08
2019-01-24T02:24:16.568Z,91.08
2019-01-24T02:25:16.318Z,90.98
2019-01-24T02:26:16.305Z,91.30
2019-01-24T02:27:16.300Z,90.87
2019-01-24T02:28:16.310Z,90.98
2019-01-24T02:29:16.281Z,91.30
2019-01-24T02:30:16.296Z,91.19
2019-01-24T02:31:16.260Z,91.40
2019-01-24T02:32:16.247Z,91.30
2019-01-24T02:33:16.265Z,91.55
2019-01-24T02:34:16.241Z,92.14
2019-01-24T02:35:16.236Z,91.61
2019-01-24T02:36:16.271Z,91.30
2019-01-24T02:37:16.198Z,91.30
2019-01-24T02:38:16.183Z,90.98
2019-01-24T02:39:16.186Z,90.98
2019-01-24T02:40:16.183Z,91.19
2019-01-24T02:41:16.196Z,90.98
2019-01-24T02:42:16.145Z,91.30
2019-01-24T02:43:16.135Z,91.08
2019-01-24T02:44:16.126Z,91.08
2019-01-24T02:45:16.116Z,91.19
2019-01-24T02:46:16.118Z,90.66
2019-01-24T02:47:16.116Z,88.97
2019-01-24T02:48:16.087Z,89.18
2019-01-24T02:49:16.093Z,90.13
2019-01-24T02:50:16.064Z,90.49
2019-01-24T02:51:16.057Z,91.30
2019-01-24T02:52:16.040Z,91.23
2019-01-24T02:53:16.074Z,91.08
2019-01-24T02:54:16.039Z,91.08
2019-01-24T02:55:16.011Z,91.19
2019-01-24T02:56:16.070Z,91.13
2019-01-24T02:57:15.994Z,91.50
2019-01-24T02:58:15.981Z,91.08
2019-01-24T02:59:16.024Z,91.13
2019-01-24T03:00:15.965Z,91.08
2019-01-24T03:01:15.960Z,90.98
2019-01-24T03:02:15.938Z,90.77
2019-01-24T03:03:15.925Z,91.61
2019-01-24T03:04:15.957Z,90.87
2019-01-24T03:05:15.943Z,91.72
2019-01-24T03:06:15.897Z,91.08
2019-01-24T03:07:15.889Z,91.19
2019-01-24T03:08:15.882Z,90.87
2019-01-24T03:09:15.870Z,91.08
2019-01-24T03:10:15.893Z,90.87
2019-01-24T03:11:15.890Z,90.34
2019-01-24T03:12:15.834Z,90.59
2019-01-24T03:13:15.823Z,90.13
2019-01-24T03:14:15.813Z,90.59
2019-01-24T03:15:15.805Z,90.34
2019-01-24T03:16:15.812Z,90.06
2019-01-24T03:17:15.819Z,90.66
2019-01-24T03:18:15.780Z,91.08
2019-01-24T03:19:15.770Z,91.19
2019-01-24T03:20:15.769Z,91.33
2019-01-24T03:21:15.747Z,90.03
2019-01-24T03:22:15.734Z,89.54
2019-01-24T03:23:15.762Z,89.01
2019-01-24T03:24:15.715Z,89.01
2019-01-24T03:25:15.735Z,89.01
2019-01-24T03:26:15.691Z,89.32
2019-01-24T03:27:15.895Z,89.32
2019-01-24T03:28:15.677Z,89.96
2019-01-24T03:29:15.687Z,89.75
2019-01-24T03:30:15.653Z,90.81
2019-01-24T03:31:15.662Z,90.70
2019-01-24T03:32:15.644Z,90.38
2019-01-24T03:33:15.623Z,90.17
2019-01-24T03:34:15.614Z,90.28
2019-01-24T03:35:15.639Z,89.96
2019-01-24T03:36:15.598Z,89.96
2019-01-24T03:37:15.608Z,90.55
2019-01-24T03:38:15.570Z,90.28
2019-01-24T03:39:15.577Z,90.70
2019-01-24T03:40:15.561Z,91.33
2019-01-24T03:41:15.578Z,91.13
2019-01-24T03:42:15.530Z,90.38
2019-01-24T03:43:15.538Z,90.81
2019-01-24T03:44:15.512Z,91.44
2019-01-24T03:45:15.499Z,91.02
2019-01-24T03:46:15.492Z,91.76
2019-01-24T03:47:15.517Z,91.08
2019-01-24T03:48:15.529Z,90.91
2019-01-24T03:49:15.476Z,90.17
2019-01-24T03:50:15.462Z,89.64
2019-01-24T03:51:15.434Z,89.32
2019-01-24T03:52:15.437Z,90.06
2019-01-24T03:53:15.469Z,90.91
2019-01-24T03:54:15.407Z,91.44
2019-01-24T03:55:15.416Z,91.23
2019-01-24T03:56:15.390Z,90.91
2019-01-24T03:57:15.378Z,91.13
2019-01-24T03:58:15.366Z,91.44
2019-01-24T03:59:15.394Z,91.13
2019-01-24T04:00:15.345Z,90.59
2019-01-24T04:01:15.354Z,90.81
2019-01-24T04:02:15.327Z,89.43
2019-01-24T04:03:15.315Z,89.64
2019-01-24T04:04:15.311Z,89.01
2019-01-24T04:05:15.314Z,89.32
2019-01-24T04:06:15.295Z,89.12
2019-01-24T04:07:15.303Z,89.12
2019-01-24T04:08:15.276Z,89.22
2019-01-24T04:09:15.467Z,89.32
2019-01-24T04:10:15.295Z,89.26
2019-01-24T04:11:15.234Z,89.12
2019-01-24T04:12:15.225Z,89.58
2019-01-24T04:13:15.251Z,89.54
2019-01-24T04:14:15.203Z,89.26
2019-01-24T04:15:15.195Z,89.58
2019-01-24T04:16:15.243Z,89.22
2019-01-24T04:17:15.172Z,89.75
2019-01-24T04:18:15.166Z,90.17
2019-01-24T04:19:15.171Z,90.95
2019-01-24T04:20:15.144Z,89.89
2019-01-24T04:21:15.164Z,89.79
2019-01-24T04:22:15.126Z,90.64
2019-01-24T04:23:15.112Z,91.13
2019-01-24T04:24:15.098Z,91.13
2019-01-24T04:25:15.113Z,91.02
2019-01-24T04:26:15.078Z,91.33
2019-01-24T04:27:15.109Z,91.02
2019-01-24T04:28:15.063Z,90.91
2019-01-24T04:29:15.050Z,91.23
2019-01-24T04:30:15.254Z,91.44
2019-01-24T04:31:15.052Z,91.13
2019-01-24T04:32:15.022Z,90.91
2019-01-24T04:33:15.039Z,91.76
2019-01-24T04:34:15.024Z,91.65
2019-01-24T04:35:19.678Z,91.13
2019-01-24T04:36:16.001Z,91.13
2019-01-24T04:37:14.973Z,91.13
2019-01-24T04:38:14.957Z,91.44
2019-01-24T04:39:14.968Z,91.02
2019-01-24T04:40:14.944Z,91.23
2019-01-24T04:41:14.925Z,91.76
2019-01-24T04:42:14.938Z,91.23
2019-01-24T04:43:14.924Z,91.13
2019-01-24T04:44:14.895Z,91.23
2019-01-24T04:45:14.922Z,91.13
2019-01-24T04:46:14.882Z,91.13
2019-01-24T04:47:14.869Z,91.02
2019-01-24T04:48:14.881Z,91.13
2019-01-24T04:49:14.852Z,91.13
2019-01-24T04:50:14.864Z,91.23
2019-01-24T04:51:14.907Z,91.02
2019-01-24T04:52:14.813Z,90.81
2019-01-24T04:53:14.841Z,90.38
2019-01-24T04:54:14.811Z,90.81
2019-01-24T04:55:14.781Z,90.91
2019-01-24T04:56:14.782Z,91.55
2019-01-24T04:57:14.797Z,91.61
2019-01-24T04:58:14.755Z,91.33
2019-01-24T04:59:14.746Z,90.81
2019-01-24T05:00:14.754Z,91.02
2019-01-24T05:01:14.724Z,90.81
2019-01-24T05:02:14.715Z,90.38
2019-01-24T05:03:16.185Z,89.75
2019-01-24T05:04:14.695Z,89.01
2019-01-24T05:05:14.681Z,89.32
2019-01-24T05:06:14.686Z,89.22
2019-01-24T05:07:14.661Z,88.90
2019-01-24T05:08:14.651Z,89.12
2019-01-24T05:09:14.670Z,89.01
2019-01-24T05:10:14.655Z,89.32
2019-01-24T05:11:14.626Z,89.64
2019-01-24T05:12:14.608Z,90.38
2019-01-24T05:13:14.601Z,90.17
2019-01-24T05:14:14.588Z,90.17
2019-01-24T05:15:14.627Z,90.06
2019-01-24T05:16:14.590Z,90.38
2019-01-24T05:17:14.561Z,90.91
2019-01-24T05:18:14.547Z,90.81
2019-01-24T05:19:14.540Z,90.91
2019-01-24T05:20:14.525Z,90.91
2019-01-24T05:21:14.558Z,90.91
2019-01-24T05:22:14.522Z,91.02
2019-01-24T05:23:14.501Z,91.13
2019-01-24T05:24:14.488Z,90.91
2019-01-24T05:25:14.489Z,91.33
2019-01-24T05:26:14.482Z,91.02
2019-01-24T05:27:14.488Z,91.44
2019-01-24T05:28:14.462Z,90.81
2019-01-24T05:29:14.436Z,90.70
2019-01-24T05:30:14.425Z,90.91
2019-01-24T05:31:14.433Z,91.33
2019-01-24T05:32:14.405Z,91.65
2019-01-24T05:33:14.429Z,91.44
2019-01-24T05:34:14.386Z,91.40
2019-01-24T05:35:14.390Z,91.65
2019-01-24T05:36:14.482Z,92.18
2019-01-24T05:37:14.359Z,91.30
2019-01-24T05:38:14.344Z,91.72
2019-01-24T05:39:14.368Z,91.61
2019-01-24T05:40:14.354Z,90.87
2019-01-24T05:41:14.332Z,91.08
2019-01-24T05:42:14.307Z,91.02
2019-01-24T05:43:14.319Z,90.87
2019-01-24T05:44:14.283Z,91.40
2019-01-24T05:45:14.301Z,90.81
2019-01-24T05:46:14.283Z,90.59
2019-01-24T05:47:19.102Z,90.91
2019-01-24T05:48:14.252Z,90.81
2019-01-24T05:49:14.229Z,90.81
2019-01-24T05:50:14.295Z,90.70
2019-01-24T05:51:14.213Z,90.91
2019-01-24T05:52:19.456Z,90.91
2019-01-24T05:53:15.237Z,90.91
2019-01-24T05:54:14.187Z,91.02
2019-01-24T05:55:14.169Z,91.02
2019-01-24T05:56:14.160Z,90.59
2019-01-24T05:57:14.149Z,90.34
2019-01-24T05:58:14.202Z,90.81
2019-01-24T05:59:14.140Z,90.91
2019-01-24T06:00:14.121Z,90.81
2019-01-24T06:01:14.134Z,90.81
2019-01-24T06:02:14.095Z,91.02
2019-01-24T06:03:14.088Z,91.02
2019-01-24T06:04:14.101Z,91.13
2019-01-24T06:05:14.078Z,91.13
2019-01-24T06:06:14.072Z,90.49
2019-01-24T06:07:14.046Z,90.81
2019-01-24T06:08:14.039Z,90.81
2019-01-24T06:09:14.023Z,90.81
2019-01-24T06:10:14.059Z,90.38
2019-01-24T06:11:14.020Z,90.81
2019-01-24T06:12:13.994Z,90.49
2019-01-24T06:13:13.985Z,90.17
2019-01-24T06:14:13.999Z,90.49
2019-01-24T06:15:14.011Z,90.70
2019-01-24T06:16:13.979Z,90.49
2019-01-24T06:17:13.981Z,90.38
2019-01-24T06:18:13.934Z,90.81
2019-01-24T06:19:13.924Z,90.06
2019-01-24T06:20:13.924Z,90.70
2019-01-24T06:21:13.923Z,90.95
2019-01-24T06:22:13.899Z,90.81
2019-01-24T06:23:13.936Z,91.27
2019-01-24T06:24:13.869Z,91.48
2019-01-24T06:25:13.931Z,91.33
2019-01-24T06:26:13.867Z,91.02
2019-01-24T06:27:13.862Z,90.38
2019-01-24T06:28:13.831Z,90.74
2019-01-24T06:29:13.841Z,89.69
2019-01-24T06:30:13.820Z,89.89
2019-01-24T06:31:13.803Z,89.89
2019-01-24T06:32:13.791Z,89.47
2019-01-24T06:33:13.789Z,89.37
2019-01-24T06:34:13.771Z,89.89
2019-01-24T06:35:13.758Z,90.42
2019-01-24T06:36:13.822Z,90.74
2019-01-24T06:37:13.743Z,91.06
2019-01-24T06:38:13.726Z,91.02
2019-01-24T06:39:13.798Z,91.16
2019-01-24T06:40:13.703Z,91.02
2019-01-24T06:41:13.710Z,91.80
2019-01-24T06:42:13.737Z,90.81
2019-01-24T06:43:13.668Z,91.55
2019-01-24T06:44:13.666Z,90.95
2019-01-24T06:45:13.657Z,91.23
2019-01-24T06:46:13.660Z,91.38
2019-01-24T06:47:13.629Z,91.33
2019-01-24T06:48:13.658Z,91.44
2019-01-24T06:49:13.608Z,91.80
2019-01-24T06:50:13.601Z,91.02
2019-01-24T06:51:13.611Z,91.33
2019-01-24T06:52:13.580Z,91.13
2019-01-24T06:53:13.573Z,91.06
2019-01-24T06:54:13.576Z,91.65
2019-01-24T06:55:13.548Z,91.33
2019-01-24T06:56:13.595Z,91.55
2019-01-24T06:57:13.717Z,91.33
2019-01-24T06:58:13.542Z,91.13
2019-01-24T06:59:13.504Z,91.02
2019-01-24T07:00:13.553Z,91.02
2019-01-24T07:01:13.495Z,91.13
2019-01-24T07:02:13.498Z,91.02
2019-01-24T07:03:13.464Z,91.44
2019-01-24T07:04:13.464Z,91.76
2019-01-24T07:05:13.445Z,91.65
2019-01-24T07:06:13.491Z,91.23
2019-01-24T07:07:13.424Z,91.76
2019-01-24T07:08:13.430Z,91.13
2019-01-24T07:09:13.415Z,91.13
2019-01-24T07:10:13.397Z,91.13
2019-01-24T07:11:13.384Z,91.13
2019-01-24T07:12:13.399Z,91.06
2019-01-24T07:13:13.361Z,91.27
2019-01-24T07:14:13.371Z,91.80
2019-01-24T07:15:13.343Z,91.55
2019-01-24T07:16:13.341Z,91.76
2019-01-24T07:17:13.323Z,91.06
2019-01-24T07:18:13.527Z,91.13
2019-01-24T07:19:13.296Z,90.84
2019-01-24T07:20:13.312Z,91.02
2019-01-24T07:21:13.280Z,90.84
2019-01-24T07:22:13.266Z,90.95
2019-01-24T07:23:13.257Z,91.16
2019-01-24T07:24:13.336Z,91.59
2019-01-24T07:25:13.233Z,90.91
2019-01-24T07:26:13.250Z,91.33
2019-01-24T07:27:13.222Z,91.02
2019-01-24T07:28:13.211Z,91.27
2019-01-24T07:29:13.218Z,91.13
2019-01-24T07:30:13.186Z,91.23
2019-01-24T07:31:13.172Z,91.33
2019-01-24T07:32:13.183Z,91.23
2019-01-24T07:33:13.155Z,91.86
2019-01-24T07:34:13.141Z,91.33
2019-01-24T07:35:13.170Z,90.70
2019-01-24T07:36:13.126Z,91.23
2019-01-24T07:37:13.116Z,91.13
2019-01-24T07:38:13.122Z,91.23
2019-01-24T07:39:13.319Z,91.02
2019-01-24T07:40:13.089Z,91.13
2019-01-24T07:41:13.103Z,91.33
2019-01-24T07:42:13.065Z,91.55
2019-01-24T07:43:13.052Z,91.44
2019-01-24T07:44:13.071Z,91.33
2019-01-24T07:45:13.031Z,91.76
2019-01-24T07:46:13.023Z,91.65
2019-01-24T07:47:13.046Z,91.33
2019-01-24T07:48:12.998Z,91.23
2019-01-24T07:49:12.990Z,91.13
2019-01-24T07:50:13.014Z,91.23
2019-01-24T07:51:12.966Z,90.81
2019-01-24T07:52:12.977Z,90.38
2019-01-24T07:53:12.984Z,91.02
2019-01-24T07:54:12.937Z,90.70
2019-01-24T07:55:12.931Z,90.91
2019-01-24T07:56:12.923Z,91.33
2019-01-24T07:57:12.927Z,91.02
2019-01-24T07:58:12.903Z,91.44
2019-01-24T07:59:12.915Z,91.44
2019-01-24T08:00:12.879Z,91.13
2019-01-24T08:01:12.869Z,91.13
2019-01-24T08:02:12.861Z,91.76
2019-01-24T08:03:12.863Z,91.44
2019-01-24T08:04:12.839Z,91.76
2019-01-24T08:05:12.841Z,91.13
2019-01-24T08:06:12.815Z,91.23
2019-01-24T08:07:12.804Z,91.13
2019-01-24T08:08:12.796Z,91.13
2019-01-24T08:09:12.808Z,90.59
2019-01-24T08:10:12.776Z,91.23
2019-01-24T08:11:12.792Z,91.02
2019-01-24T08:12:12.752Z,91.44
2019-01-24T08:13:12.743Z,91.13
2019-01-24T08:14:12.737Z,90.17
2019-01-24T08:15:12.739Z,89.75
2019-01-24T08:16:12.717Z,89.64
2019-01-24T08:17:12.756Z,89.96
2019-01-24T08:18:12.694Z,90.38
2019-01-24T08:19:12.682Z,91.33
2019-01-24T08:20:12.676Z,91.23
2019-01-24T08:21:12.666Z,90.81
2019-01-24T08:22:12.654Z,90.38
2019-01-24T08:23:12.698Z,90.59
2019-01-24T08:24:12.630Z,90.81
2019-01-24T08:25:12.625Z,91.44
2019-01-24T08:26:12.614Z,91.40
2019-01-24T08:27:12.599Z,91.08
2019-01-24T08:28:12.656Z,91.23
2019-01-24T08:29:12.630Z,91.19
2019-01-24T08:30:12.570Z,91.30
2019-01-24T08:31:12.560Z,90.91
2019-01-24T08:32:12.554Z,91.08
2019-01-24T08:33:12.555Z,91.30
2019-01-24T08:34:12.533Z,90.98
2019-01-24T08:35:12.548Z,91.19
2019-01-24T08:36:15.722Z,91.13
2019-01-24T08:37:12.500Z,90.77
2019-01-24T08:38:12.508Z,91.13
2019-01-24T08:39:12.478Z,90.45
2019-01-24T08:40:12.469Z,90.06
2019-01-24T08:41:12.501Z,90.03
2019-01-24T08:42:12.445Z,89.75
2019-01-24T08:43:12.457Z,89.39
2019-01-24T08:44:12.430Z,89.61
2019-01-24T08:45:12.419Z,90.66
2019-01-24T08:46:12.409Z,90.98
2019-01-24T08:47:12.433Z,90.66
2019-01-24T08:48:12.402Z,90.77
2019-01-24T08:49:12.375Z,89.61
2019-01-24T08:50:12.365Z,90.03
2019-01-24T08:51:12.359Z,90.34
2019-01-24T08:52:12.351Z,90.87
2019-01-24T08:53:12.364Z,91.50
2019-01-24T08:54:12.402Z,90.98
2019-01-24T08:55:12.313Z,90.98
2019-01-24T08:56:12.306Z,91.08
2019-01-24T08:57:12.297Z,91.30
2019-01-24T08:58:12.720Z,91.40
2019-01-24T08:59:12.290Z,90.87
2019-01-24T09:00:12.278Z,91.19
2019-01-24T09:01:12.257Z,91.93
2019-01-24T09:02:12.245Z,90.98
2019-01-24T09:03:12.250Z,91.40
2019-01-24T09:04:12.440Z,90.98
2019-01-24T09:05:12.249Z,90.77
2019-01-24T09:06:12.209Z,91.08
2019-01-24T09:07:12.190Z,90.77
2019-01-24T09:08:12.203Z,91.61
2019-01-24T09:09:12.171Z,91.72
2019-01-24T09:10:12.165Z,92.14
2019-01-24T09:11:12.172Z,91.19
2019-01-24T09:12:12.146Z,91.72
2019-01-24T09:13:12.133Z,92.35
2019-01-24T09:14:12.134Z,92.14
2019-01-24T09:15:12.108Z,91.40
2019-01-24T09:16:12.100Z,91.61
2019-01-24T09:17:12.129Z,91.93
2019-01-24T09:18:12.089Z,91.08
2019-01-24T09:19:12.068Z,91.61
2019-01-24T09:20:12.073Z,91.19
2019-01-24T09:21:12.045Z,91.19
2019-01-24T09:22:12.038Z,91.19
2019-01-24T09:23:12.073Z,91.40
2019-01-24T09:24:12.021Z,91.67
2019-01-24T09:25:12.011Z,91.61
2019-01-24T09:26:12.002Z,91.78
2019-01-24T09:27:11.989Z,91.19
2019-01-24T09:28:14.909Z,91.72
2019-01-24T09:29:11.988Z,91.72
2019-01-24T09:30:11.964Z,91.08
2019-01-24T09:31:11.949Z,91.19
2019-01-24T09:32:11.933Z,91.19
2019-01-24T09:33:12.012Z,91.40
2019-01-24T09:34:11.916Z,91.40
2019-01-24T09:35:11.933Z,92.10
2019-01-24T09:36:11.952Z,91.67
2019-01-24T09:37:11.884Z,91.19
2019-01-24T09:38:11.886Z,91.72
2019-01-24T09:39:11.864Z,91.50
2019-01-24T09:40:11.858Z,91.50
2019-01-24T09:41:11.876Z,91.40
2019-01-24T09:42:11.843Z,91.57
2019-01-24T09:43:11.853Z,91.82
2019-01-24T09:44:11.809Z,91.82
2019-01-24T09:45:11.800Z,92.14
2019-01-24T09:46:11.849Z,92.14
2019-01-24T09:47:11.799Z,92.24
2019-01-24T09:48:11.796Z,91.72
2019-01-24T09:49:11.760Z,92.56
2019-01-24T09:50:11.751Z,92.20
2019-01-24T09:51:11.737Z,92.31
2019-01-24T09:52:11.726Z,91.40
2019-01-24T09:53:11.763Z,91.82
2019-01-24T09:54:11.726Z,91.25
2019-01-24T09:55:11.697Z,91.36
2019-01-24T09:56:11.689Z,91.89
2019-01-24T09:57:11.675Z,91.14
2019-01-24T09:58:11.668Z,91.25
2019-01-24T09:59:11.682Z,91.04
2019-01-24T10:00:11.668Z,91.46
2019-01-24T10:01:11.641Z,90.94
2019-01-24T10:02:11.623Z,90.94
2019-01-24T10:03:11.613Z,91.04
2019-01-24T10:04:11.606Z,91.25
2019-01-24T10:05:11.631Z,91.14
2019-01-24T10:06:11.599Z,91.36
2019-01-24T10:07:11.797Z,90.83
2019-01-24T10:08:11.566Z,91.04
2019-01-24T10:09:11.554Z,91.11
2019-01-24T10:10:11.546Z,90.58
2019-01-24T10:11:11.563Z,90.16
2019-01-24T10:12:11.544Z,90.89
2019-01-24T10:13:11.509Z,90.58
2019-01-24T10:14:11.499Z,90.79
2019-01-24T10:15:11.490Z,91.11
2019-01-24T10:16:11.478Z,91.11
2019-01-24T10:17:11.518Z,90.37
2019-01-24T10:18:11.479Z,90.58
2019-01-24T10:19:11.450Z,90.69
2019-01-24T10:20:11.438Z,89.63
2019-01-24T10:21:11.430Z,89.63
2019-01-24T10:22:11.416Z,89.63
2019-01-24T10:23:11.443Z,89.20
2019-01-24T10:24:11.424Z,89.84
2019-01-24T10:25:11.396Z,89.42
2019-01-24T10:26:11.374Z,90.05
2019-01-24T10:27:11.371Z,89.84
2019-01-24T10:28:11.359Z,89.73
2019-01-24T10:29:11.381Z,89.63
2019-01-24T10:30:11.366Z,89.20
2019-01-24T10:31:11.324Z,89.84
2019-01-24T10:32:11.314Z,89.31
2019-01-24T10:33:11.305Z,89.84
2019-01-24T10:34:11.311Z,90.47
2019-01-24T10:35:11.319Z,90.58
2019-01-24T10:36:11.279Z,89.52
2019-01-24T10:37:11.269Z,89.00
2019-01-24T10:38:11.261Z,88.78
2019-01-24T10:39:11.263Z,87.84
2019-01-24T10:40:11.237Z,86.99
2019-01-24T10:41:11.255Z,87.05
2019-01-24T10:42:11.216Z,87.20
2019-01-24T10:43:11.212Z,87.84
2019-01-24T10:44:11.222Z,87.94
2019-01-24T10:45:11.181Z,88.04
2019-01-24T10:46:11.190Z,87.73
2019-01-24T10:47:11.163Z,88.11
2019-01-24T10:48:11.151Z,88.01
2019-01-24T10:49:11.155Z,88.21
2019-01-24T10:50:11.129Z,88.01
2019-01-24T10:51:11.133Z,87.58
2019-01-24T10:52:11.133Z,88.01
2019-01-24T10:53:11.097Z,88.32
2019-01-24T10:54:11.091Z,88.43
2019-01-24T10:55:13.701Z,88.95
2019-01-24T10:56:11.074Z,89.06
2019-01-24T10:57:11.062Z,88.53
2019-01-24T10:58:11.076Z,87.90
2019-01-24T10:59:11.043Z,88.43
2019-01-24T11:00:11.032Z,88.95
2019-01-24T11:01:11.035Z,89.06
2019-01-24T11:02:11.009Z,89.48
2019-01-24T11:03:10.992Z,88.53
2019-01-24T11:04:11.025Z,88.81
2019-01-24T11:05:10.973Z,88.92
2019-01-24T11:06:10.962Z,87.90
2019-01-24T11:07:10.964Z,88.28
2019-01-24T11:08:10.946Z,88.21
2019-01-24T11:09:10.950Z,89.17
2019-01-24T11:10:11.004Z,88.49
2019-01-24T11:11:10.913Z,88.39
2019-01-24T11:12:10.903Z,87.76
2019-01-24T11:13:10.897Z,87.96
2019-01-24T11:14:10.901Z,88.18
2019-01-24T11:15:10.873Z,86.80
2019-01-24T11:16:10.890Z,87.33
2019-01-24T11:17:10.861Z,87.58
2019-01-24T11:18:10.862Z,87.44
2019-01-24T11:19:10.846Z,87.44
2019-01-24T11:20:10.819Z,87.44
2019-01-24T11:21:10.824Z,87.02
2019-01-24T11:22:10.804Z,87.65
2019-01-24T11:23:10.790Z,87.65
2019-01-24T11:24:10.784Z,87.12
2019-01-24T11:25:10.786Z,86.91
2019-01-24T11:26:10.756Z,87.19
2019-01-24T11:27:10.746Z,85.64
2019-01-24T11:28:10.756Z,85.54
2019-01-24T11:29:10.726Z,86.38
2019-01-24T11:30:10.717Z,86.91
2019-01-24T11:31:11.054Z,84.17
2019-01-24T11:32:10.698Z,84.06
2019-01-24T11:33:10.689Z,83.85
2019-01-24T11:34:10.698Z,84.59
2019-01-24T11:35:10.664Z,83.85
2019-01-24T11:36:10.657Z,84.91
2019-01-24T11:37:10.659Z,84.38
2019-01-24T11:38:10.635Z,83.75
2019-01-24T11:39:10.645Z,83.85
2019-01-24T11:40:10.633Z,83.43
2019-01-24T11:41:10.601Z,84.06
2019-01-24T11:42:10.611Z,84.38
2019-01-24T11:43:10.582Z,85.33
2019-01-24T11:44:10.595Z,86.07
2019-01-24T11:45:10.565Z,87.19
2019-01-24T11:46:10.586Z,87.08
2019-01-24T11:47:10.541Z,85.92
2019-01-24T11:48:10.532Z,85.61
2019-01-24T11:49:10.543Z,85.29
2019-01-24T11:50:10.508Z,85.25
2019-01-24T11:51:10.499Z,84.62
2019-01-24T11:52:10.538Z,84.62
2019-01-24T11:53:10.487Z,84.20
2019-01-24T11:54:10.470Z,83.88
2019-01-24T11:55:10.474Z,84.41
2019-01-24T11:56:10.446Z,83.63
2019-01-24T11:57:10.438Z,83.84
2019-01-24T11:58:10.424Z,83.11
2019-01-24T11:59:10.440Z,82.89
2019-01-24T12:00:10.410Z,82.79
2019-01-24T12:01:10.409Z,82.37
2019-01-24T12:02:10.385Z,82.26
2019-01-24T12:03:10.382Z,81.84
2019-01-24T12:04:10.366Z,81.74
2019-01-24T12:05:10.379Z,81.63
2019-01-24T12:06:10.344Z,80.58
2019-01-24T12:07:10.349Z,78.89
2019-01-24T12:08:10.328Z,79.17
2019-01-24T12:09:10.321Z,81.07
2019-01-24T12:10:10.305Z,80.54
2019-01-24T12:11:10.329Z,81.35
2019-01-24T12:12:10.286Z,81.03
2019-01-24T12:13:10.609Z,79.60
2019-01-24T12:14:10.261Z,79.14
2019-01-24T12:15:10.267Z,80.12
2019-01-24T12:16:10.247Z,80.86
2019-01-24T12:17:10.253Z,80.96
2019-01-24T12:18:10.220Z,82.75
2019-01-24T12:19:10.208Z,82.97
2019-01-24T12:20:10.218Z,82.12
2019-01-24T12:21:10.198Z,82.65
2019-01-24T12:22:10.183Z,84.27
2019-01-24T12:23:10.184Z,83.81
2019-01-24T12:24:10.157Z,83.07
2019-01-24T12:25:10.146Z,83.28
2019-01-24T12:26:10.156Z,83.59
2019-01-24T12:27:10.130Z,83.49
2019-01-24T12:28:10.120Z,84.16
2019-01-24T12:29:10.156Z,84.23
2019-01-24T12:30:10.100Z,84.33
2019-01-24T12:31:10.091Z,84.96
2019-01-24T12:32:10.095Z,84.89
2019-01-24T12:33:10.065Z,84.86
2019-01-24T12:34:10.099Z,84.86
2019-01-24T12:35:10.111Z,85.42
2019-01-24T12:36:10.038Z,85.31
2019-01-24T12:37:11.456Z,86.90
2019-01-24T12:38:10.032Z,86.27
2019-01-24T12:39:10.003Z,87.00
2019-01-24T12:40:09.994Z,86.86
2019-01-24T12:41:10.018Z,86.90
2019-01-24T12:42:09.973Z,86.47
2019-01-24T12:43:09.978Z,86.27
2019-01-24T12:44:09.951Z,85.53
2019-01-24T12:45:09.942Z,85.31
2019-01-24T12:46:09.974Z,85.95
2019-01-24T12:47:09.970Z,85.36
2019-01-24T12:48:09.930Z,85.21
2019-01-24T12:49:09.897Z,85.36
2019-01-24T12:50:09.891Z,85.88
2019-01-24T12:51:09.881Z,86.94
2019-01-24T12:52:09.867Z,86.62